sensor_id;sensor_type;location;lat;lon;timestamp;P1;durP1;ratioP1;P2;durP2;ratioP2
19280;SDS011;9774;52.034;5.342;2022-12-18T00:02:16;25.95;;;12.02;;
19280;SDS011;9774;52.034;5.342;2022-12-18T00:04:43;24.27;;;11.85;;
19280;SDS011;9774;52.034;5.342;2022-12-18T00:07:10;22.45;;;11.73;;
19280;SDS011;9774;52.034;5.342;2022-12-18T00:09:37;27.13;;;13.30;;
19280;SDS011;9774;52.034;5.342;2022-12-18T00:12:05;25.08;;;12.80;;
19280;SDS011;9774;52.034;5.342;2022-12-18T00:14:32;25.98;;;12.13;;
19280;SDS011;9774;52.034;5.342;2022-12-18T00:17:00;25.33;;;12.25;;
19280;SDS011;9774;52.034;5.342;2022-12-18T00:19:29;23.17;;;11.88;;
19280;SDS011;9774;52.034;5.342;2022-12-18T00:21:56;26.33;;;13.48;;
19280;SDS011;9774;52.034;5.342;2022-12-18T00:24:24;23.10;;;12.55;;
19280;SDS011;9774;52.034;5.342;2022-12-18T00:26:51;29.08;;;13.63;;
19280;SDS011;9774;52.034;5.342;2022-12-18T00:29:18;26.08;;;12.52;;
19280;SDS011;9774;52.034;5.342;2022-12-18T00:31:45;23.52;;;12.57;;
19280;SDS011;9774;52.034;5.342;2022-12-18T00:34:13;25.90;;;13.15;;
19280;SDS011;9774;52.034;5.342;2022-12-18T00:36:42;25.98;;;12.68;;
19280;SDS011;9774;52.034;5.342;2022-12-18T00:39:10;26.45;;;13.65;;
19280;SDS011;9774;52.034;5.342;2022-12-18T00:41:37;26.70;;;12.85;;
19280;SDS011;9774;52.034;5.342;2022-12-18T00:44:22;27.10;;;13.52;;
19280;SDS011;9774;52.034;5.342;2022-12-18T00:46:49;27.27;;;13.57;;
19280;SDS011;9774;52.034;5.342;2022-12-18T00:49:17;28.50;;;14.30;;
19280;SDS011;9774;52.034;5.342;2022-12-18T00:51:46;31.42;;;14.57;;
19280;SDS011;9774;52.034;5.342;2022-12-18T00:54:14;29.08;;;13.68;;
19280;SDS011;9774;52.034;5.342;2022-12-18T00:56:42;25.92;;;12.90;;
19280;SDS011;9774;52.034;5.342;2022-12-18T00:59:09;27.88;;;13.52;;
19280;SDS011;9774;52.034;5.342;2022-12-18T01:01:36;26.02;;;13.65;;
19280;SDS011;9774;52.034;5.342;2022-12-18T01:04:03;25.42;;;13.23;;
19280;SDS011;9774;52.034;5.342;2022-12-18T01:06:31;21.40;;;11.57;;
19280;SDS011;9774;52.034;5.342;2022-12-18T01:08:59;28.90;;;13.48;;
19280;SDS011;9774;52.034;5.342;2022-12-18T01:11:27;24.45;;;12.57;;
19280;SDS011;9774;52.034;5.342;2022-12-18T01:13:54;25.70;;;12.70;;
19280;SDS011;9774;52.034;5.342;2022-12-18T01:16:21;23.88;;;12.00;;
19280;SDS011;9774;52.034;5.342;2022-12-18T01:18:51;24.20;;;12.23;;
19280;SDS011;9774;52.034;5.342;2022-12-18T01:21:20;25.63;;;12.48;;
19280;SDS011;9774;52.034;5.342;2022-12-18T01:23:50;21.25;;;11.52;;
19280;SDS011;9774;52.034;5.342;2022-12-18T01:26:20;24.60;;;13.15;;
19280;SDS011;9774;52.034;5.342;2022-12-18T01:28:48;22.27;;;11.65;;
19280;SDS011;9774;52.034;5.342;2022-12-18T01:31:16;22.75;;;11.65;;
19280;SDS011;9774;52.034;5.342;2022-12-18T01:33:45;22.85;;;11.57;;
19280;SDS011;9774;52.034;5.342;2022-12-18T01:36:14;24.23;;;11.82;;
19280;SDS011;9774;52.034;5.342;2022-12-18T01:38:43;22.75;;;12.73;;
19280;SDS011;9774;52.034;5.342;2022-12-18T01:41:11;22.33;;;11.70;;
19280;SDS011;9774;52.034;5.342;2022-12-18T01:43:45;25.73;;;12.35;;
19280;SDS011;9774;52.034;5.342;2022-12-18T01:46:15;25.25;;;12.05;;
19280;SDS011;9774;52.034;5.342;2022-12-18T01:48:43;24.58;;;12.65;;
19280;SDS011;9774;52.034;5.342;2022-12-18T01:51:12;29.80;;;12.75;;
19280;SDS011;9774;52.034;5.342;2022-12-18T01:53:41;25.27;;;12.27;;
19280;SDS011;9774;52.034;5.342;2022-12-18T01:56:11;22.27;;;11.45;;
19280;SDS011;9774;52.034;5.342;2022-12-18T01:58:41;27.33;;;14.27;;
19280;SDS011;9774;52.034;5.342;2022-12-18T02:01:16;24.95;;;11.80;;
19280;SDS011;9774;52.034;5.342;2022-12-18T02:03:45;24.10;;;12.18;;
19280;SDS011;9774;52.034;5.342;2022-12-18T02:06:13;23.55;;;12.13;;
19280;SDS011;9774;52.034;5.342;2022-12-18T02:08:47;26.58;;;13.10;;
19280;SDS011;9774;52.034;5.342;2022-12-18T02:11:23;27.73;;;13.63;;
19280;SDS011;9774;52.034;5.342;2022-12-18T02:14:02;23.55;;;11.95;;
19280;SDS011;9774;52.034;5.342;2022-12-18T02:16:38;22.42;;;11.55;;
19280;SDS011;9774;52.034;5.342;2022-12-18T02:19:15;26.55;;;12.63;;
19280;SDS011;9774;52.034;5.342;2022-12-18T02:22:03;25.90;;;13.93;;
19280;SDS011;9774;52.034;5.342;2022-12-18T02:24:41;28.25;;;13.85;;
19280;SDS011;9774;52.034;5.342;2022-12-18T02:27:15;24.88;;;13.13;;
19280;SDS011;9774;52.034;5.342;2022-12-18T02:29:44;23.98;;;12.38;;
19280;SDS011;9774;52.034;5.342;2022-12-18T02:32:16;27.13;;;13.85;;
19280;SDS011;9774;52.034;5.342;2022-12-18T02:34:47;24.90;;;13.70;;
19280;SDS011;9774;52.034;5.342;2022-12-18T02:37:16;24.08;;;12.18;;
19280;SDS011;9774;52.034;5.342;2022-12-18T02:39:46;26.90;;;12.40;;
19280;SDS011;9774;52.034;5.342;2022-12-18T02:42:16;22.80;;;12.35;;
19280;SDS011;9774;52.034;5.342;2022-12-18T02:44:45;21.17;;;11.80;;
19280;SDS011;9774;52.034;5.342;2022-12-18T02:47:14;29.05;;;14.10;;
19280;SDS011;9774;52.034;5.342;2022-12-18T02:49:44;25.70;;;12.95;;
19280;SDS011;9774;52.034;5.342;2022-12-18T02:52:23;23.45;;;12.02;;
19280;SDS011;9774;52.034;5.342;2022-12-18T02:54:57;26.33;;;13.32;;
19280;SDS011;9774;52.034;5.342;2022-12-18T02:57:35;23.27;;;11.68;;
19280;SDS011;9774;52.034;5.342;2022-12-18T03:00:11;24.55;;;13.15;;
19280;SDS011;9774;52.034;5.342;2022-12-18T03:02:43;25.48;;;12.35;;
19280;SDS011;9774;52.034;5.342;2022-12-18T03:05:15;27.15;;;12.93;;
19280;SDS011;9774;52.034;5.342;2022-12-18T03:07:46;24.27;;;13.05;;
19280;SDS011;9774;52.034;5.342;2022-12-18T03:10:21;26.85;;;12.43;;
19280;SDS011;9774;52.034;5.342;2022-12-18T03:12:58;24.67;;;13.18;;
19280;SDS011;9774;52.034;5.342;2022-12-18T03:15:30;22.13;;;11.68;;
19280;SDS011;9774;52.034;5.342;2022-12-18T03:18:02;19.10;;;10.88;;
19280;SDS011;9774;52.034;5.342;2022-12-18T03:20:34;20.80;;;11.75;;
19280;SDS011;9774;52.034;5.342;2022-12-18T03:23:04;26.55;;;12.15;;
19280;SDS011;9774;52.034;5.342;2022-12-18T03:25:35;23.48;;;12.15;;
19280;SDS011;9774;52.034;5.342;2022-12-18T03:28:08;22.35;;;11.05;;
19280;SDS011;9774;52.034;5.342;2022-12-18T03:30:39;19.55;;;9.88;;
19280;SDS011;9774;52.034;5.342;2022-12-18T03:33:10;24.85;;;12.13;;
19280;SDS011;9774;52.034;5.342;2022-12-18T03:35:43;21.83;;;10.68;;
19280;SDS011;9774;52.034;5.342;2022-12-18T03:38:11;21.90;;;12.88;;
19280;SDS011;9774;52.034;5.342;2022-12-18T03:40:41;21.20;;;11.60;;
19280;SDS011;9774;52.034;5.342;2022-12-18T03:43:18;22.90;;;11.43;;
19280;SDS011;9774;52.034;5.342;2022-12-18T03:45:54;21.50;;;12.35;;
19280;SDS011;9774;52.034;5.342;2022-12-18T03:48:29;22.60;;;11.20;;
19280;SDS011;9774;52.034;5.342;2022-12-18T03:51:04;21.38;;;11.02;;
19280;SDS011;9774;52.034;5.342;2022-12-18T03:53:36;19.23;;;9.85;;
19280;SDS011;9774;52.034;5.342;2022-12-18T03:56:08;19.52;;;11.25;;
19280;SDS011;9774;52.034;5.342;2022-12-18T03:58:39;22.60;;;11.05;;
19280;SDS011;9774;52.034;5.342;2022-12-18T04:01:07;22.35;;;12.30;;
19280;SDS011;9774;52.034;5.342;2022-12-18T04:03:38;22.13;;;11.05;;
19280;SDS011;9774;52.034;5.342;2022-12-18T04:06:07;19.85;;;10.75;;
19280;SDS011;9774;52.034;5.342;2022-12-18T04:08:35;20.02;;;10.85;;
19280;SDS011;9774;52.034;5.342;2022-12-18T04:11:03;19.15;;;10.43;;
19280;SDS011;9774;52.034;5.342;2022-12-18T04:13:32;20.48;;;10.85;;
19280;SDS011;9774;52.034;5.342;2022-12-18T04:16:02;22.83;;;10.55;;
19280;SDS011;9774;52.034;5.342;2022-12-18T04:18:30;19.90;;;10.00;;
19280;SDS011;9774;52.034;5.342;2022-12-18T04:20:57;18.73;;;10.80;;
19280;SDS011;9774;52.034;5.342;2022-12-18T04:23:24;18.40;;;10.85;;
19280;SDS011;9774;52.034;5.342;2022-12-18T04:25:52;17.50;;;10.20;;
19280;SDS011;9774;52.034;5.342;2022-12-18T04:28:19;16.95;;;9.55;;
19280;SDS011;9774;52.034;5.342;2022-12-18T04:30:46;16.67;;;8.73;;
19280;SDS011;9774;52.034;5.342;2022-12-18T04:33:15;14.95;;;8.95;;
19280;SDS011;9774;52.034;5.342;2022-12-18T04:35:42;15.75;;;9.50;;
19280;SDS011;9774;52.034;5.342;2022-12-18T04:38:09;16.75;;;9.15;;
19280;SDS011;9774;52.034;5.342;2022-12-18T04:40:37;16.40;;;9.05;;
19280;SDS011;9774;52.034;5.342;2022-12-18T04:43:04;15.35;;;8.85;;
19280;SDS011;9774;52.034;5.342;2022-12-18T04:45:32;14.48;;;8.63;;
19280;SDS011;9774;52.034;5.342;2022-12-18T04:47:59;16.92;;;10.00;;
19280;SDS011;9774;52.034;5.342;2022-12-18T04:50:29;16.05;;;9.13;;
19280;SDS011;9774;52.034;5.342;2022-12-18T04:52:56;17.40;;;9.18;;
19280;SDS011;9774;52.034;5.342;2022-12-18T04:55:24;14.55;;;8.38;;
19280;SDS011;9774;52.034;5.342;2022-12-18T04:57:51;15.95;;;9.32;;
19280;SDS011;9774;52.034;5.342;2022-12-18T05:00:19;15.07;;;8.80;;
19280;SDS011;9774;52.034;5.342;2022-12-18T05:02:47;15.52;;;9.02;;
19280;SDS011;9774;52.034;5.342;2022-12-18T05:05:14;15.52;;;8.40;;
19280;SDS011;9774;52.034;5.342;2022-12-18T05:07:43;14.57;;;8.63;;
19280;SDS011;9774;52.034;5.342;2022-12-18T05:10:10;16.60;;;9.32;;
19280;SDS011;9774;52.034;5.342;2022-12-18T05:12:37;12.85;;;9.25;;
19280;SDS011;9774;52.034;5.342;2022-12-18T05:15:23;12.98;;;7.65;;
19280;SDS011;9774;52.034;5.342;2022-12-18T05:17:50;13.88;;;7.78;;
19280;SDS011;9774;52.034;5.342;2022-12-18T05:20:17;14.75;;;8.35;;
19280;SDS011;9774;52.034;5.342;2022-12-18T05:22:46;17.88;;;8.88;;
19280;SDS011;9774;52.034;5.342;2022-12-18T05:25:13;14.05;;;8.57;;
19280;SDS011;9774;52.034;5.342;2022-12-18T05:27:41;16.60;;;8.75;;
19280;SDS011;9774;52.034;5.342;2022-12-18T05:30:08;17.45;;;8.68;;
19280;SDS011;9774;52.034;5.342;2022-12-18T05:32:36;13.52;;;8.30;;
19280;SDS011;9774;52.034;5.342;2022-12-18T05:35:05;14.90;;;7.75;;
19280;SDS011;9774;52.034;5.342;2022-12-18T05:37:34;12.85;;;7.72;;
19280;SDS011;9774;52.034;5.342;2022-12-18T05:40:03;16.15;;;9.35;;
19280;SDS011;9774;52.034;5.342;2022-12-18T05:42:31;13.15;;;8.18;;
19280;SDS011;9774;52.034;5.342;2022-12-18T05:44:58;12.20;;;8.13;;
19280;SDS011;9774;52.034;5.342;2022-12-18T05:47:26;11.98;;;7.88;;
19280;SDS011;9774;52.034;5.342;2022-12-18T05:49:53;12.88;;;8.00;;
19280;SDS011;9774;52.034;5.342;2022-12-18T05:52:21;14.30;;;7.78;;
19280;SDS011;9774;52.034;5.342;2022-12-18T05:54:48;13.95;;;8.25;;
19280;SDS011;9774;52.034;5.342;2022-12-18T05:57:17;13.50;;;7.63;;
19280;SDS011;9774;52.034;5.342;2022-12-18T05:59:44;11.38;;;7.88;;
19280;SDS011;9774;52.034;5.342;2022-12-18T06:02:11;14.75;;;8.68;;
19280;SDS011;9774;52.034;5.342;2022-12-18T06:04:38;17.00;;;8.30;;
19280;SDS011;9774;52.034;5.342;2022-12-18T06:07:06;12.93;;;7.25;;
19280;SDS011;9774;52.034;5.342;2022-12-18T06:09:33;13.32;;;7.18;;
19280;SDS011;9774;52.034;5.342;2022-12-18T06:12:00;14.27;;;7.82;;
19280;SDS011;9774;52.034;5.342;2022-12-18T06:14:29;12.20;;;7.85;;
19280;SDS011;9774;52.034;5.342;2022-12-18T06:16:56;12.10;;;7.43;;
19280;SDS011;9774;52.034;5.342;2022-12-18T06:19:23;11.80;;;7.97;;
19280;SDS011;9774;52.034;5.342;2022-12-18T06:21:50;11.30;;;6.93;;
19280;SDS011;9774;52.034;5.342;2022-12-18T06:24:18;12.20;;;7.57;;
19280;SDS011;9774;52.034;5.342;2022-12-18T06:26:45;11.43;;;7.30;;
19280;SDS011;9774;52.034;5.342;2022-12-18T06:29:12;12.07;;;7.47;;
19280;SDS011;9774;52.034;5.342;2022-12-18T06:31:41;12.55;;;7.10;;
19280;SDS011;9774;52.034;5.342;2022-12-18T06:34:08;11.70;;;7.05;;
19280;SDS011;9774;52.034;5.342;2022-12-18T06:36:35;13.85;;;8.02;;
19280;SDS011;9774;52.034;5.342;2022-12-18T06:39:02;11.60;;;6.72;;
19280;SDS011;9774;52.034;5.342;2022-12-18T06:41:30;11.57;;;7.32;;
19280;SDS011;9774;52.034;5.342;2022-12-18T06:43:57;12.30;;;6.80;;
19280;SDS011;9774;52.034;5.342;2022-12-18T06:46:24;11.77;;;7.00;;
19280;SDS011;9774;52.034;5.342;2022-12-18T06:48:53;11.07;;;6.68;;
19280;SDS011;9774;52.034;5.342;2022-12-18T06:51:21;10.98;;;7.30;;
19280;SDS011;9774;52.034;5.342;2022-12-18T06:53:48;11.77;;;6.57;;
19280;SDS011;9774;52.034;5.342;2022-12-18T06:56:16;15.05;;;7.55;;
19280;SDS011;9774;52.034;5.342;2022-12-18T06:58:43;12.15;;;7.53;;
19280;SDS011;9774;52.034;5.342;2022-12-18T07:01:11;11.15;;;6.40;;
19280;SDS011;9774;52.034;5.342;2022-12-18T07:03:39;11.18;;;6.82;;
19280;SDS011;9774;52.034;5.342;2022-12-18T07:06:13;13.15;;;7.63;;
19280;SDS011;9774;52.034;5.342;2022-12-18T07:08:41;12.10;;;6.70;;
19280;SDS011;9774;52.034;5.342;2022-12-18T07:11:09;12.63;;;7.40;;
19280;SDS011;9774;52.034;5.342;2022-12-18T07:13:36;10.80;;;7.18;;
19280;SDS011;9774;52.034;5.342;2022-12-18T07:16:05;11.43;;;7.18;;
19280;SDS011;9774;52.034;5.342;2022-12-18T07:18:34;11.48;;;6.35;;
19280;SDS011;9774;52.034;5.342;2022-12-18T07:21:04;12.45;;;7.68;;
19280;SDS011;9774;52.034;5.342;2022-12-18T07:23:34;11.00;;;7.13;;
19280;SDS011;9774;52.034;5.342;2022-12-18T07:26:02;11.93;;;7.28;;
19280;SDS011;9774;52.034;5.342;2022-12-18T07:28:30;10.57;;;7.00;;
19280;SDS011;9774;52.034;5.342;2022-12-18T07:30:58;11.80;;;6.90;;
19280;SDS011;9774;52.034;5.342;2022-12-18T07:33:28;12.52;;;7.30;;
19280;SDS011;9774;52.034;5.342;2022-12-18T07:35:55;13.77;;;7.68;;
19280;SDS011;9774;52.034;5.342;2022-12-18T07:38:24;11.18;;;6.63;;
19280;SDS011;9774;52.034;5.342;2022-12-18T07:40:53;10.60;;;6.82;;
19280;SDS011;9774;52.034;5.342;2022-12-18T07:43:20;11.20;;;6.93;;
19280;SDS011;9774;52.034;5.342;2022-12-18T07:45:48;11.93;;;7.30;;
19280;SDS011;9774;52.034;5.342;2022-12-18T07:48:16;10.25;;;7.28;;
19280;SDS011;9774;52.034;5.342;2022-12-18T07:50:43;11.73;;;7.13;;
19280;SDS011;9774;52.034;5.342;2022-12-18T07:53:10;12.52;;;7.63;;
19280;SDS011;9774;52.034;5.342;2022-12-18T07:55:39;14.52;;;7.40;;
19280;SDS011;9774;52.034;5.342;2022-12-18T07:58:08;11.35;;;6.85;;
19280;SDS011;9774;52.034;5.342;2022-12-18T08:00:36;12.98;;;8.25;;
19280;SDS011;9774;52.034;5.342;2022-12-18T08:03:03;11.82;;;7.78;;
19280;SDS011;9774;52.034;5.342;2022-12-18T08:05:30;12.18;;;7.35;;
19280;SDS011;9774;52.034;5.342;2022-12-18T08:07:58;10.48;;;6.80;;
19280;SDS011;9774;52.034;5.342;2022-12-18T08:10:25;11.55;;;7.15;;
19280;SDS011;9774;52.034;5.342;2022-12-18T08:12:52;14.40;;;8.20;;
19280;SDS011;9774;52.034;5.342;2022-12-18T08:15:21;12.05;;;7.43;;
19280;SDS011;9774;52.034;5.342;2022-12-18T08:17:48;11.52;;;7.13;;
19280;SDS011;9774;52.034;5.342;2022-12-18T08:20:15;10.43;;;7.03;;
19280;SDS011;9774;52.034;5.342;2022-12-18T08:22:43;10.23;;;6.78;;
19280;SDS011;9774;52.034;5.342;2022-12-18T08:25:10;10.68;;;6.50;;
19280;SDS011;9774;52.034;5.342;2022-12-18T08:27:38;10.77;;;6.75;;
19280;SDS011;9774;52.034;5.342;2022-12-18T08:30:05;10.73;;;6.88;;
19280;SDS011;9774;52.034;5.342;2022-12-18T08:32:35;10.98;;;7.32;;
19280;SDS011;9774;52.034;5.342;2022-12-18T08:35:02;11.75;;;6.70;;
19280;SDS011;9774;52.034;5.342;2022-12-18T08:37:30;13.15;;;7.10;;
19280;SDS011;9774;52.034;5.342;2022-12-18T08:39:57;11.70;;;7.45;;
19280;SDS011;9774;52.034;5.342;2022-12-18T08:42:24;11.82;;;7.03;;
19280;SDS011;9774;52.034;5.342;2022-12-18T08:45:09;13.55;;;7.75;;
19280;SDS011;9774;52.034;5.342;2022-12-18T08:47:38;11.30;;;6.95;;
19280;SDS011;9774;52.034;5.342;2022-12-18T08:50:05;12.45;;;7.40;;
19280;SDS011;9774;52.034;5.342;2022-12-18T08:52:33;13.30;;;7.75;;
19280;SDS011;9774;52.034;5.342;2022-12-18T08:55:00;10.18;;;6.75;;
19280;SDS011;9774;52.034;5.342;2022-12-18T08:57:27;10.07;;;7.18;;
19280;SDS011;9774;52.034;5.342;2022-12-18T08:59:55;11.43;;;6.80;;
19280;SDS011;9774;52.034;5.342;2022-12-18T09:02:22;11.95;;;7.40;;
19280;SDS011;9774;52.034;5.342;2022-12-18T09:04:51;11.45;;;7.30;;
19280;SDS011;9774;52.034;5.342;2022-12-18T09:07:18;11.35;;;7.15;;
19280;SDS011;9774;52.034;5.342;2022-12-18T09:09:45;10.88;;;7.90;;
19280;SDS011;9774;52.034;5.342;2022-12-18T09:12:12;9.52;;;6.25;;
19280;SDS011;9774;52.034;5.342;2022-12-18T09:14:40;11.82;;;7.03;;
19280;SDS011;9774;52.034;5.342;2022-12-18T09:17:07;11.30;;;6.65;;
19280;SDS011;9774;52.034;5.342;2022-12-18T09:19:34;11.45;;;7.40;;
19280;SDS011;9774;52.034;5.342;2022-12-18T09:22:02;12.68;;;7.55;;
19280;SDS011;9774;52.034;5.342;2022-12-18T09:24:30;12.43;;;7.60;;
19280;SDS011;9774;52.034;5.342;2022-12-18T09:26:57;12.82;;;7.57;;
19280;SDS011;9774;52.034;5.342;2022-12-18T09:29:24;10.60;;;7.10;;
19280;SDS011;9774;52.034;5.342;2022-12-18T09:31:51;12.48;;;7.03;;
19280;SDS011;9774;52.034;5.342;2022-12-18T09:34:19;11.32;;;6.97;;
19280;SDS011;9774;52.034;5.342;2022-12-18T09:36:48;11.43;;;7.63;;
19280;SDS011;9774;52.034;5.342;2022-12-18T09:39:17;11.60;;;7.03;;
19280;SDS011;9774;52.034;5.342;2022-12-18T09:41:45;12.82;;;7.45;;
19280;SDS011;9774;52.034;5.342;2022-12-18T09:44:19;13.00;;;8.02;;
19280;SDS011;9774;52.034;5.342;2022-12-18T09:47:03;13.30;;;7.78;;
19280;SDS011;9774;52.034;5.342;2022-12-18T09:49:37;11.20;;;7.25;;
19280;SDS011;9774;52.034;5.342;2022-12-18T09:52:16;10.90;;;7.05;;
19280;SDS011;9774;52.034;5.342;2022-12-18T09:54:50;10.75;;;6.78;;
19280;SDS011;9774;52.034;5.342;2022-12-18T09:57:22;13.38;;;7.63;;
19280;SDS011;9774;52.034;5.342;2022-12-18T09:59:51;11.15;;;7.10;;
19280;SDS011;9774;52.034;5.342;2022-12-18T10:02:23;12.13;;;7.05;;
19280;SDS011;9774;52.034;5.342;2022-12-18T10:05:00;11.95;;;6.80;;
19280;SDS011;9774;52.034;5.342;2022-12-18T10:07:33;11.90;;;6.57;;
19280;SDS011;9774;52.034;5.342;2022-12-18T10:10:25;11.88;;;6.70;;
19280;SDS011;9774;52.034;5.342;2022-12-18T10:13:02;12.00;;;6.80;;
19280;SDS011;9774;52.034;5.342;2022-12-18T10:15:36;12.43;;;6.68;;
19280;SDS011;9774;52.034;5.342;2022-12-18T10:18:15;12.13;;;7.15;;
19280;SDS011;9774;52.034;5.342;2022-12-18T10:20:51;11.52;;;7.18;;
19280;SDS011;9774;52.034;5.342;2022-12-18T10:23:23;9.98;;;6.63;;
19280;SDS011;9774;52.034;5.342;2022-12-18T10:25:58;12.82;;;7.00;;
19280;SDS011;9774;52.034;5.342;2022-12-18T10:28:29;10.32;;;6.80;;
19280;SDS011;9774;52.034;5.342;2022-12-18T10:30:57;11.00;;;6.72;;
19280;SDS011;9774;52.034;5.342;2022-12-18T10:33:28;9.95;;;6.65;;
19280;SDS011;9774;52.034;5.342;2022-12-18T10:35:56;9.82;;;6.75;;
19280;SDS011;9774;52.034;5.342;2022-12-18T10:38:25;10.90;;;6.63;;
19280;SDS011;9774;52.034;5.342;2022-12-18T10:40:54;9.55;;;6.32;;
19280;SDS011;9774;52.034;5.342;2022-12-18T10:43:26;9.38;;;5.72;;
19280;SDS011;9774;52.034;5.342;2022-12-18T10:45:59;9.93;;;6.07;;
19280;SDS011;9774;52.034;5.342;2022-12-18T10:48:30;12.20;;;6.57;;
19280;SDS011;9774;52.034;5.342;2022-12-18T10:50:59;11.05;;;6.35;;
19280;SDS011;9774;52.034;5.342;2022-12-18T10:53:27;8.93;;;6.03;;
19280;SDS011;9774;52.034;5.342;2022-12-18T10:56:00;12.18;;;5.88;;
19280;SDS011;9774;52.034;5.342;2022-12-18T10:58:31;11.32;;;6.90;;
19280;SDS011;9774;52.034;5.342;2022-12-18T11:01:04;10.13;;;6.43;;
19280;SDS011;9774;52.034;5.342;2022-12-18T11:03:35;10.45;;;6.22;;
19280;SDS011;9774;52.034;5.342;2022-12-18T11:06:05;9.00;;;5.47;;
19280;SDS011;9774;52.034;5.342;2022-12-18T11:08:33;10.65;;;6.18;;
19280;SDS011;9774;52.034;5.342;2022-12-18T11:11:02;8.90;;;6.32;;
19280;SDS011;9774;52.034;5.342;2022-12-18T11:13:33;11.70;;;6.82;;
19280;SDS011;9774;52.034;5.342;2022-12-18T11:16:00;9.27;;;6.22;;
19280;SDS011;9774;52.034;5.342;2022-12-18T11:18:28;10.18;;;5.97;;
19280;SDS011;9774;52.034;5.342;2022-12-18T11:20:58;10.45;;;6.63;;
19280;SDS011;9774;52.034;5.342;2022-12-18T11:23:32;10.98;;;6.00;;
19280;SDS011;9774;52.034;5.342;2022-12-18T11:26:03;8.15;;;5.47;;
19280;SDS011;9774;52.034;5.342;2022-12-18T11:28:40;10.25;;;6.53;;
19280;SDS011;9774;52.034;5.342;2022-12-18T11:33:58;7.90;;;5.10;;
19280;SDS011;9774;52.034;5.342;2022-12-18T11:36:29;9.23;;;6.05;;
19280;SDS011;9774;52.034;5.342;2022-12-18T11:39:01;9.23;;;6.07;;
19280;SDS011;9774;52.034;5.342;2022-12-18T11:41:37;7.47;;;5.57;;
19280;SDS011;9774;52.034;5.342;2022-12-18T11:44:26;10.25;;;6.13;;
19280;SDS011;9774;52.034;5.342;2022-12-18T11:46:59;9.52;;;6.05;;
19280;SDS011;9774;52.034;5.342;2022-12-18T11:49:32;8.27;;;5.78;;
19280;SDS011;9774;52.034;5.342;2022-12-18T11:52:01;8.52;;;5.68;;
19280;SDS011;9774;52.034;5.342;2022-12-18T11:54:36;9.30;;;5.40;;
19280;SDS011;9774;52.034;5.342;2022-12-18T11:57:06;8.77;;;5.55;;
19280;SDS011;9774;52.034;5.342;2022-12-18T11:59:40;9.95;;;6.00;;
19280;SDS011;9774;52.034;5.342;2022-12-18T12:02:21;10.23;;;5.78;;
19280;SDS011;9774;52.034;5.342;2022-12-18T12:05:16;11.90;;;6.13;;
19280;SDS011;9774;52.034;5.342;2022-12-18T12:07:52;9.05;;;5.68;;
19280;SDS011;9774;52.034;5.342;2022-12-18T12:10:31;11.45;;;6.90;;
19280;SDS011;9774;52.034;5.342;2022-12-18T12:13:13;8.95;;;5.65;;
19280;SDS011;9774;52.034;5.342;2022-12-18T12:15:52;10.57;;;5.35;;
19280;SDS011;9774;52.034;5.342;2022-12-18T12:18:33;10.70;;;6.50;;
19280;SDS011;9774;52.034;5.342;2022-12-18T12:21:09;9.82;;;5.95;;
19280;SDS011;9774;52.034;5.342;2022-12-18T12:23:47;11.43;;;6.70;;
19280;SDS011;9774;52.034;5.342;2022-12-18T12:26:21;9.18;;;5.80;;
19280;SDS011;9774;52.034;5.342;2022-12-18T12:29:01;8.73;;;5.32;;
19280;SDS011;9774;52.034;5.342;2022-12-18T12:31:44;11.77;;;6.63;;
19280;SDS011;9774;52.034;5.342;2022-12-18T12:34:20;11.30;;;6.40;;
19280;SDS011;9774;52.034;5.342;2022-12-18T12:37:02;9.27;;;5.25;;
19280;SDS011;9774;52.034;5.342;2022-12-18T12:39:38;8.70;;;5.53;;
19280;SDS011;9774;52.034;5.342;2022-12-18T12:42:11;8.45;;;5.93;;
19280;SDS011;9774;52.034;5.342;2022-12-18T12:45:04;11.48;;;6.63;;
19280;SDS011;9774;52.034;5.342;2022-12-18T12:47:40;9.50;;;6.70;;
19280;SDS011;9774;52.034;5.342;2022-12-18T12:50:12;10.85;;;6.35;;
19280;SDS011;9774;52.034;5.342;2022-12-18T12:52:42;11.35;;;7.00;;
19280;SDS011;9774;52.034;5.342;2022-12-18T12:55:14;8.90;;;6.05;;
19280;SDS011;9774;52.034;5.342;2022-12-18T12:57:46;10.43;;;6.38;;
19280;SDS011;9774;52.034;5.342;2022-12-18T13:00:22;10.05;;;6.43;;
19280;SDS011;9774;52.034;5.342;2022-12-18T13:02:52;9.13;;;6.00;;
19280;SDS011;9774;52.034;5.342;2022-12-18T13:05:26;11.82;;;6.80;;
19280;SDS011;9774;52.034;5.342;2022-12-18T13:08:01;10.93;;;6.55;;
19280;SDS011;9774;52.034;5.342;2022-12-18T13:10:32;9.23;;;5.82;;
19280;SDS011;9774;52.034;5.342;2022-12-18T13:13:01;10.93;;;6.50;;
19280;SDS011;9774;52.034;5.342;2022-12-18T13:15:32;9.02;;;6.63;;
19280;SDS011;9774;52.034;5.342;2022-12-18T13:20:48;9.68;;;6.47;;
19280;SDS011;9774;52.034;5.342;2022-12-18T13:23:25;10.77;;;6.85;;
19280;SDS011;9774;52.034;5.342;2022-12-18T13:25:55;11.10;;;7.32;;
19280;SDS011;9774;52.034;5.342;2022-12-18T13:28:24;10.10;;;6.70;;
19280;SDS011;9774;52.034;5.342;2022-12-18T13:34:36;10.80;;;6.45;;
19280;SDS011;9774;52.034;5.342;2022-12-18T13:43:24;9.10;;;5.88;;
19280;SDS011;9774;52.034;5.342;2022-12-18T13:45:59;10.50;;;6.43;;
19280;SDS011;9774;52.034;5.342;2022-12-18T13:48:30;11.60;;;6.55;;
19280;SDS011;9774;52.034;5.342;2022-12-18T13:51:02;11.13;;;6.68;;
19280;SDS011;9774;52.034;5.342;2022-12-18T13:53:33;11.82;;;6.90;;
19280;SDS011;9774;52.034;5.342;2022-12-18T13:56:04;13.70;;;6.82;;
19280;SDS011;9774;52.034;5.342;2022-12-18T13:58:32;10.05;;;6.15;;
19280;SDS011;9774;52.034;5.342;2022-12-18T14:00:59;10.65;;;6.85;;
19280;SDS011;9774;52.034;5.342;2022-12-18T14:03:29;11.80;;;7.63;;
19280;SDS011;9774;52.034;5.342;2022-12-18T14:06:03;12.20;;;6.90;;
19280;SDS011;9774;52.034;5.342;2022-12-18T14:08:34;10.27;;;6.72;;
19280;SDS011;9774;52.034;5.342;2022-12-18T14:11:05;11.35;;;7.55;;
19280;SDS011;9774;52.034;5.342;2022-12-18T14:13:35;11.50;;;6.78;;
19280;SDS011;9774;52.034;5.342;2022-12-18T14:16:06;11.68;;;6.18;;
19280;SDS011;9774;52.034;5.342;2022-12-18T14:18:38;12.80;;;7.68;;
19280;SDS011;9774;52.034;5.342;2022-12-18T14:21:18;14.95;;;7.32;;
19280;SDS011;9774;52.034;5.342;2022-12-18T14:23:48;10.88;;;6.57;;
19280;SDS011;9774;52.034;5.342;2022-12-18T14:26:29;10.23;;;6.90;;
19280;SDS011;9774;52.034;5.342;2022-12-18T14:28:58;14.68;;;6.95;;
19280;SDS011;9774;52.034;5.342;2022-12-18T14:31:28;10.43;;;6.22;;
19280;SDS011;9774;52.034;5.342;2022-12-18T14:33:56;12.32;;;7.32;;
19280;SDS011;9774;52.034;5.342;2022-12-18T14:36:26;10.32;;;7.07;;
19280;SDS011;9774;52.034;5.342;2022-12-18T14:38:54;13.63;;;7.40;;
19280;SDS011;9774;52.034;5.342;2022-12-18T14:41:23;12.60;;;7.07;;
19280;SDS011;9774;52.034;5.342;2022-12-18T14:43:53;11.77;;;7.50;;
19280;SDS011;9774;52.034;5.342;2022-12-18T14:46:28;10.95;;;6.70;;
19280;SDS011;9774;52.034;5.342;2022-12-18T14:48:58;9.95;;;6.85;;
19280;SDS011;9774;52.034;5.342;2022-12-18T14:51:29;11.10;;;7.15;;
19280;SDS011;9774;52.034;5.342;2022-12-18T14:53:59;10.65;;;6.53;;
19280;SDS011;9774;52.034;5.342;2022-12-18T14:56:28;12.57;;;7.78;;
19280;SDS011;9774;52.034;5.342;2022-12-18T14:58:58;13.25;;;8.13;;
19280;SDS011;9774;52.034;5.342;2022-12-18T15:01:28;11.63;;;7.50;;
19280;SDS011;9774;52.034;5.342;2022-12-18T15:03:57;12.57;;;7.32;;
19280;SDS011;9774;52.034;5.342;2022-12-18T15:06:27;13.13;;;8.07;;
19280;SDS011;9774;52.034;5.342;2022-12-18T15:08:58;9.82;;;6.60;;
19280;SDS011;9774;52.034;5.342;2022-12-18T15:11:28;13.35;;;7.88;;
19280;SDS011;9774;52.034;5.342;2022-12-18T15:13:59;11.20;;;7.15;;
19280;SDS011;9774;52.034;5.342;2022-12-18T15:16:42;13.77;;;7.15;;
19280;SDS011;9774;52.034;5.342;2022-12-18T15:19:09;11.02;;;7.40;;
19280;SDS011;9774;52.034;5.342;2022-12-18T15:21:37;10.43;;;6.60;;